sensor_id;sensor_type;location;lat;lon;timestamp;temperature;humidity
13982;DHT22;7065;50.880;5.502;2024-03-22T00:00:07;11.70;99.90
13982;DHT22;7065;50.880;5.502;2024-03-22T00:02:39;11.70;99.90
13982;DHT22;7065;50.880;5.502;2024-03-22T00:05:05;11.70;99.90
13982;DHT22;7065;50.880;5.502;2024-03-22T00:07:31;11.80;99.90
13982;DHT22;7065;50.880;5.502;2024-03-22T00:09:56;11.80;99.90
13982;DHT22;7065;50.880;5.502;2024-03-22T00:12:22;11.70;99.90
13982;DHT22;7065;50.880;5.502;2024-03-22T00:14:48;11.70;99.90
13982;DHT22;7065;50.880;5.502;2024-03-22T00:17:14;11.70;99.90
13982;DHT22;7065;50.880;5.502;2024-03-22T00:19:39;11.70;99.90
13982;DHT22;7065;50.880;5.502;2024-03-22T00:22:05;11.80;99.90
13982;DHT22;7065;50.880;5.502;2024-03-22T00:24:31;11.80;99.90
13982;DHT22;7065;50.880;5.502;2024-03-22T00:26:57;11.80;99.90
13982;DHT22;7065;50.880;5.502;2024-03-22T00:29:22;11.80;99.90
13982;DHT22;7065;50.880;5.502;2024-03-22T00:31:48;11.80;99.90
13982;DHT22;7065;50.880;5.502;2024-03-22T00:34:13;11.80;99.90
13982;DHT22;7065;50.880;5.502;2024-03-22T00:36:39;11.80;99.90
13982;DHT22;7065;50.880;5.502;2024-03-22T00:39:05;11.80;99.90
13982;DHT22;7065;50.880;5.502;2024-03-22T00:41:31;11.80;99.90
13982;DHT22;7065;50.880;5.502;2024-03-22T00:43:57;11.80;99.90
13982;DHT22;7065;50.880;5.502;2024-03-22T00:46:23;11.80;99.90
13982;DHT22;7065;50.880;5.502;2024-03-22T00:48:49;11.80;99.90
13982;DHT22;7065;50.880;5.502;2024-03-22T00:51:14;11.80;99.90
13982;DHT22;7065;50.880;5.502;2024-03-22T00:53:40;11.70;99.90
13982;DHT22;7065;50.880;5.502;2024-03-22T00:56:06;11.80;99.90
13982;DHT22;7065;50.880;5.502;2024-03-22T00:58:31;11.80;99.90
13982;DHT22;7065;50.880;5.502;2024-03-22T01:00:57;11.80;99.90
13982;DHT22;7065;50.880;5.502;2024-03-22T01:03:23;11.70;99.90
13982;DHT22;7065;50.880;5.502;2024-03-22T01:05:49;11.80;99.90
13982;DHT22;7065;50.880;5.502;2024-03-22T01:08:14;11.80;99.90
13982;DHT22;7065;50.880;5.502;2024-03-22T01:10:40;11.80;99.90
13982;DHT22;7065;50.880;5.502;2024-03-22T01:13:06;11.80;99.90
13982;DHT22;7065;50.880;5.502;2024-03-22T01:15:32;11.80;99.90
13982;DHT22;7065;50.880;5.502;2024-03-22T01:17:58;11.80;99.90
13982;DHT22;7065;50.880;5.502;2024-03-22T01:20:24;11.80;99.90
13982;DHT22;7065;50.880;5.502;2024-03-22T01:22:49;11.90;99.90
13982;DHT22;7065;50.880;5.502;2024-03-22T01:25:15;11.80;99.90
13982;DHT22;7065;50.880;5.502;2024-03-22T01:27:41;11.80;99.90
13982;DHT22;7065;50.880;5.502;2024-03-22T01:30:07;11.80;99.90
13982;DHT22;7065;50.880;5.502;2024-03-22T01:32:34;11.80;99.90
13982;DHT22;7065;50.880;5.502;2024-03-22T01:34:59;11.80;99.90
13982;DHT22;7065;50.880;5.502;2024-03-22T01:37:25;11.80;99.90
13982;DHT22;7065;50.880;5.502;2024-03-22T01:39:51;11.80;99.90
13982;DHT22;7065;50.880;5.502;2024-03-22T01:42:16;11.80;99.90
13982;DHT22;7065;50.880;5.502;2024-03-22T01:44:42;11.80;99.90
13982;DHT22;7065;50.880;5.502;2024-03-22T01:47:08;11.80;99.90
13982;DHT22;7065;50.880;5.502;2024-03-22T01:49:34;11.80;99.90
13982;DHT22;7065;50.880;5.502;2024-03-22T01:52:00;11.80;99.90
13982;DHT22;7065;50.880;5.502;2024-03-22T01:54:26;11.80;99.90
13982;DHT22;7065;50.880;5.502;2024-03-22T01:56:52;11.80;99.90
13982;DHT22;7065;50.880;5.502;2024-03-22T01:59:18;11.80;99.90
13982;DHT22;7065;50.880;5.502;2024-03-22T02:01:43;11.80;99.90
13982;DHT22;7065;50.880;5.502;2024-03-22T02:04:10;11.80;99.90
13982;DHT22;7065;50.880;5.502;2024-03-22T02:06:35;11.80;99.90
13982;DHT22;7065;50.880;5.502;2024-03-22T02:09:01;11.80;99.90
13982;DHT22;7065;50.880;5.502;2024-03-22T02:11:30;11.80;99.90
13982;DHT22;7065;50.880;5.502;2024-03-22T02:13:56;11.80;99.90
13982;DHT22;7065;50.880;5.502;2024-03-22T02:16:22;11.80;99.90
13982;DHT22;7065;50.880;5.502;2024-03-22T02:18:47;11.80;99.90
13982;DHT22;7065;50.880;5.502;2024-03-22T02:21:14;11.80;99.90
13982;DHT22;7065;50.880;5.502;2024-03-22T02:23:40;11.80;99.90
13982;DHT22;7065;50.880;5.502;2024-03-22T02:26:07;11.80;99.90
13982;DHT22;7065;50.880;5.502;2024-03-22T02:28:33;11.80;99.90
13982;DHT22;7065;50.880;5.502;2024-03-22T02:31:00;11.80;99.90
13982;DHT22;7065;50.880;5.502;2024-03-22T02:33:26;11.80;99.90
13982;DHT22;7065;50.880;5.502;2024-03-22T02:35:52;11.80;99.90
13982;DHT22;7065;50.880;5.502;2024-03-22T02:38:18;11.80;99.90
13982;DHT22;7065;50.880;5.502;2024-03-22T02:40:44;11.80;99.90
13982;DHT22;7065;50.880;5.502;2024-03-22T02:43:11;11.80;99.90
13982;DHT22;7065;50.880;5.502;2024-03-22T02:45:37;11.80;99.90
13982;DHT22;7065;50.880;5.502;2024-03-22T02:48:03;11.80;99.90
13982;DHT22;7065;50.880;5.502;2024-03-22T02:50:33;11.80;99.90
13982;DHT22;7065;50.880;5.502;2024-03-22T02:52:58;11.80;99.90
13982;DHT22;7065;50.880;5.502;2024-03-22T02:55:24;11.70;99.90
13982;DHT22;7065;50.880;5.502;2024-03-22T02:57:50;11.80;99.90
13982;DHT22;7065;50.880;5.502;2024-03-22T03:00:15;11.80;99.90
13982;DHT22;7065;50.880;5.502;2024-03-22T03:02:41;11.80;99.90
13982;DHT22;7065;50.880;5.502;2024-03-22T03:05:07;11.80;99.90
13982;DHT22;7065;50.880;5.502;2024-03-22T03:07:33;11.80;99.90
13982;DHT22;7065;50.880;5.502;2024-03-22T03:09:59;11.80;99.90
13982;DHT22;7065;50.880;5.502;2024-03-22T03:12:25;11.70;99.90
13982;DHT22;7065;50.880;5.502;2024-03-22T03:14:51;11.70;99.90
13982;DHT22;7065;50.880;5.502;2024-03-22T03:17:16;11.60;99.90
13982;DHT22;7065;50.880;5.502;2024-03-22T03:19:42;11.60;99.90
13982;DHT22;7065;50.880;5.502;2024-03-22T03:22:08;11.60;99.90
13982;DHT22;7065;50.880;5.502;2024-03-22T03:24:33;11.50;99.90
13982;DHT22;7065;50.880;5.502;2024-03-22T03:26:59;11.50;99.90
13982;DHT22;7065;50.880;5.502;2024-03-22T03:29:24;11.50;99.90
13982;DHT22;7065;50.880;5.502;2024-03-22T03:31:50;11.50;99.90
13982;DHT22;7065;50.880;5.502;2024-03-22T03:34:16;11.50;99.90
13982;DHT22;7065;50.880;5.502;2024-03-22T03:36:42;11.40;99.90
13982;DHT22;7065;50.880;5.502;2024-03-22T03:39:07;11.40;99.90
13982;DHT22;7065;50.880;5.502;2024-03-22T03:41:33;11.40;99.90
13982;DHT22;7065;50.880;5.502;2024-03-22T03:43:59;11.40;99.90
13982;DHT22;7065;50.880;5.502;2024-03-22T03:46:25;11.40;99.90
13982;DHT22;7065;50.880;5.502;2024-03-22T03:48:51;11.40;99.90
13982;DHT22;7065;50.880;5.502;2024-03-22T03:51:16;11.40;99.90
13982;DHT22;7065;50.880;5.502;2024-03-22T03:53:42;11.50;99.90
13982;DHT22;7065;50.880;5.502;2024-03-22T03:56:08;11.50;99.90
13982;DHT22;7065;50.880;5.502;2024-03-22T03:58:33;11.50;99.90
13982;DHT22;7065;50.880;5.502;2024-03-22T04:00:59;11.50;99.90
13982;DHT22;7065;50.880;5.502;2024-03-22T04:03:30;11.50;99.90
13982;DHT22;7065;50.880;5.502;2024-03-22T04:05:59;11.50;99.90
13982;DHT22;7065;50.880;5.502;2024-03-22T04:08:29;11.40;99.90
13982;DHT22;7065;50.880;5.502;2024-03-22T04:10:56;11.40;99.90
13982;DHT22;7065;50.880;5.502;2024-03-22T04:13:26;11.40;99.90
13982;DHT22;7065;50.880;5.502;2024-03-22T04:15:52;11.40;99.90
13982;DHT22;7065;50.880;5.502;2024-03-22T04:18:18;11.40;99.90
13982;DHT22;7065;50.880;5.502;2024-03-22T04:20:54;11.40;99.90
13982;DHT22;7065;50.880;5.502;2024-03-22T04:23:21;11.40;99.90
13982;DHT22;7065;50.880;5.502;2024-03-22T04:25:57;11.40;99.90
13982;DHT22;7065;50.880;5.502;2024-03-22T04:28:27;11.40;99.90
13982;DHT22;7065;50.880;5.502;2024-03-22T04:31:06;11.40;99.90
13982;DHT22;7065;50.880;5.502;2024-03-22T04:33:33;11.50;99.90
13982;DHT22;7065;50.880;5.502;2024-03-22T04:36:00;11.50;99.90
13982;DHT22;7065;50.880;5.502;2024-03-22T04:38:27;11.50;99.90
13982;DHT22;7065;50.880;5.502;2024-03-22T04:40:53;11.50;99.90
13982;DHT22;7065;50.880;5.502;2024-03-22T04:43:19;11.50;99.90
13982;DHT22;7065;50.880;5.502;2024-03-22T04:45:46;11.50;99.90
13982;DHT22;7065;50.880;5.502;2024-03-22T04:48:18;11.50;99.90
13982;DHT22;7065;50.880;5.502;2024-03-22T04:50:44;11.50;99.90
13982;DHT22;7065;50.880;5.502;2024-03-22T04:53:10;11.50;99.90
13982;DHT22;7065;50.880;5.502;2024-03-22T04:55:36;11.50;99.90
13982;DHT22;7065;50.880;5.502;2024-03-22T04:58:03;11.50;99.90
13982;DHT22;7065;50.880;5.502;2024-03-22T05:00:29;11.50;99.90
13982;DHT22;7065;50.880;5.502;2024-03-22T05:02:54;11.50;99.90
13982;DHT22;7065;50.880;5.502;2024-03-22T05:05:20;11.50;99.90
13982;DHT22;7065;50.880;5.502;2024-03-22T05:07:46;11.50;99.90
13982;DHT22;7065;50.880;5.502;2024-03-22T05:10:12;11.50;99.90
13982;DHT22;7065;50.880;5.502;2024-03-22T05:12:38;11.50;99.90
13982;DHT22;7065;50.880;5.502;2024-03-22T05:15:04;11.60;99.90
13982;DHT22;7065;50.880;5.502;2024-03-22T05:17:30;11.60;99.90
13982;DHT22;7065;50.880;5.502;2024-03-22T05:20:00;11.60;99.90
13982;DHT22;7065;50.880;5.502;2024-03-22T05:22:27;11.60;99.90
13982;DHT22;7065;50.880;5.502;2024-03-22T05:24:53;11.60;99.90
13982;DHT22;7065;50.880;5.502;2024-03-22T05:27:18;11.60;99.90
13982;DHT22;7065;50.880;5.502;2024-03-22T05:29:44;11.60;99.90
13982;DHT22;7065;50.880;5.502;2024-03-22T05:32:10;11.60;99.90
13982;DHT22;7065;50.880;5.502;2024-03-22T05:34:35;11.60;99.90
13982;DHT22;7065;50.880;5.502;2024-03-22T05:37:02;11.60;99.90
13982;DHT22;7065;50.880;5.502;2024-03-22T05:39:28;11.60;99.90
13982;DHT22;7065;50.880;5.502;2024-03-22T05:41:53;11.60;99.90
13982;DHT22;7065;50.880;5.502;2024-03-22T05:44:21;11.60;99.90
13982;DHT22;7065;50.880;5.502;2024-03-22T05:46:47;11.60;99.90
13982;DHT22;7065;50.880;5.502;2024-03-22T05:49:13;11.60;99.90
13982;DHT22;7065;50.880;5.502;2024-03-22T05:51:38;11.50;99.90
13982;DHT22;7065;50.880;5.502;2024-03-22T05:54:04;11.60;99.90
13982;DHT22;7065;50.880;5.502;2024-03-22T05:56:30;11.60;99.90
13982;DHT22;7065;50.880;5.502;2024-03-22T05:58:56;11.60;99.90
13982;DHT22;7065;50.880;5.502;2024-03-22T06:01:21;11.60;99.90
13982;DHT22;7065;50.880;5.502;2024-03-22T06:03:47;11.60;99.90
13982;DHT22;7065;50.880;5.502;2024-03-22T06:06:12;11.60;99.90
13982;DHT22;7065;50.880;5.502;2024-03-22T06:08:38;11.60;99.90
13982;DHT22;7065;50.880;5.502;2024-03-22T06:11:07;11.60;99.90
13982;DHT22;7065;50.880;5.502;2024-03-22T06:13:33;11.60;99.90
13982;DHT22;7065;50.880;5.502;2024-03-22T06:15:59;11.60;99.90
13982;DHT22;7065;50.880;5.502;2024-03-22T06:18:24;11.70;99.90
13982;DHT22;7065;50.880;5.502;2024-03-22T06:20:50;11.70;99.90
13982;DHT22;7065;50.880;5.502;2024-03-22T06:23:16;11.70;99.90
13982;DHT22;7065;50.880;5.502;2024-03-22T06:25:51;11.70;99.90
13982;DHT22;7065;50.880;5.502;2024-03-22T06:28:17;11.80;99.90
13982;DHT22;7065;50.880;5.502;2024-03-22T06:30:43;11.80;99.90
13982;DHT22;7065;50.880;5.502;2024-03-22T06:33:08;11.80;99.90
13982;DHT22;7065;50.880;5.502;2024-03-22T06:35:34;11.80;99.90
13982;DHT22;7065;50.880;5.502;2024-03-22T06:38:00;11.70;99.90
13982;DHT22;7065;50.880;5.502;2024-03-22T06:40:28;11.80;99.90
13982;DHT22;7065;50.880;5.502;2024-03-22T06:42:55;11.80;99.90
13982;DHT22;7065;50.880;5.502;2024-03-22T06:45:20;11.80;99.90
13982;DHT22;7065;50.880;5.502;2024-03-22T06:47:46;11.80;99.90
13982;DHT22;7065;50.880;5.502;2024-03-22T06:50:12;11.80;99.90
13982;DHT22;7065;50.880;5.502;2024-03-22T06:52:38;11.80;99.90
13982;DHT22;7065;50.880;5.502;2024-03-22T06:55:03;11.90;99.90
13982;DHT22;7065;50.880;5.502;2024-03-22T06:57:29;11.90;99.90
13982;DHT22;7065;50.880;5.502;2024-03-22T06:59:55;11.90;99.90
13982;DHT22;7065;50.880;5.502;2024-03-22T07:02:21;11.90;99.90
13982;DHT22;7065;50.880;5.502;2024-03-22T07:04:47;11.90;99.90
13982;DHT22;7065;50.880;5.502;2024-03-22T07:07:12;11.90;99.90
13982;DHT22;7065;50.880;5.502;2024-03-22T07:09:38;11.90;99.90
13982;DHT22;7065;50.880;5.502;2024-03-22T07:12:05;11.90;99.90
13982;DHT22;7065;50.880;5.502;2024-03-22T07:14:30;11.90;99.90
13982;DHT22;7065;50.880;5.502;2024-03-22T07:16:56;11.90;99.90
13982;DHT22;7065;50.880;5.502;2024-03-22T07:19:22;11.90;99.90
13982;DHT22;7065;50.880;5.502;2024-03-22T07:21:47;11.90;99.90
13982;DHT22;7065;50.880;5.502;2024-03-22T07:24:13;11.90;99.90
13982;DHT22;7065;50.880;5.502;2024-03-22T07:26:39;11.90;99.90
13982;DHT22;7065;50.880;5.502;2024-03-22T07:29:05;12.00;99.90
13982;DHT22;7065;50.880;5.502;2024-03-22T07:31:30;12.00;99.90
13982;DHT22;7065;50.880;5.502;2024-03-22T07:33:56;12.00;99.90
13982;DHT22;7065;50.880;5.502;2024-03-22T07:36:22;12.10;99.90
13982;DHT22;7065;50.880;5.502;2024-03-22T07:38:47;12.10;99.90
13982;DHT22;7065;50.880;5.502;2024-03-22T07:41:16;12.10;99.90
13982;DHT22;7065;50.880;5.502;2024-03-22T07:43:41;12.20;99.90
13982;DHT22;7065;50.880;5.502;2024-03-22T07:46:07;12.20;99.90
13982;DHT22;7065;50.880;5.502;2024-03-22T07:48:33;12.20;99.90
13982;DHT22;7065;50.880;5.502;2024-03-22T07:50:59;12.30;99.90
13982;DHT22;7065;50.880;5.502;2024-03-22T07:53:25;12.30;99.90
13982;DHT22;7065;50.880;5.502;2024-03-22T07:55:51;12.30;99.90
13982;DHT22;7065;50.880;5.502;2024-03-22T07:58:17;12.40;99.90
13982;DHT22;7065;50.880;5.502;2024-03-22T08:00:42;12.40;99.90
13982;DHT22;7065;50.880;5.502;2024-03-22T08:03:14;12.40;99.90
13982;DHT22;7065;50.880;5.502;2024-03-22T08:05:40;12.50;99.90
13982;DHT22;7065;50.880;5.502;2024-03-22T08:08:06;12.50;99.90
13982;DHT22;7065;50.880;5.502;2024-03-22T08:10:32;12.40;99.90
13982;DHT22;7065;50.880;5.502;2024-03-22T08:12:58;12.40;99.90
13982;DHT22;7065;50.880;5.502;2024-03-22T08:15:23;12.40;99.90
13982;DHT22;7065;50.880;5.502;2024-03-22T08:17:49;12.50;99.90
13982;DHT22;7065;50.880;5.502;2024-03-22T08:20:14;12.40;99.90
13982;DHT22;7065;50.880;5.502;2024-03-22T08:22:40;12.50;99.90
13982;DHT22;7065;50.880;5.502;2024-03-22T08:25:06;12.50;99.90
13982;DHT22;7065;50.880;5.502;2024-03-22T08:27:33;12.60;99.90
13982;DHT22;7065;50.880;5.502;2024-03-22T08:30:00;12.60;99.90
13982;DHT22;7065;50.880;5.502;2024-03-22T08:32:25;12.60;99.90
13982;DHT22;7065;50.880;5.502;2024-03-22T08:34:51;12.70;99.90
13982;DHT22;7065;50.880;5.502;2024-03-22T08:37:17;12.70;99.90
13982;DHT22;7065;50.880;5.502;2024-03-22T08:39:43;12.70;99.90
13982;DHT22;7065;50.880;5.502;2024-03-22T08:42:09;12.70;99.90
13982;DHT22;7065;50.880;5.502;2024-03-22T08:44:35;12.80;99.90
13982;DHT22;7065;50.880;5.502;2024-03-22T08:47:01;12.70;99.90
13982;DHT22;7065;50.880;5.502;2024-03-22T08:49:26;12.60;99.90
13982;DHT22;7065;50.880;5.502;2024-03-22T08:51:52;12.50;99.90
13982;DHT22;7065;50.880;5.502;2024-03-22T08:54:17;12.50;99.90
13982;DHT22;7065;50.880;5.502;2024-03-22T08:56:43;12.60;99.90
13982;DHT22;7065;50.880;5.502;2024-03-22T08:59:09;12.60;99.90
13982;DHT22;7065;50.880;5.502;2024-03-22T09:01:35;12.50;99.90
13982;DHT22;7065;50.880;5.502;2024-03-22T09:04:02;12.50;99.90
13982;DHT22;7065;50.880;5.502;2024-03-22T09:06:27;12.50;99.90
13982;DHT22;7065;50.880;5.502;2024-03-22T09:08:53;12.50;99.90
13982;DHT22;7065;50.880;5.502;2024-03-22T09:11:23;12.50;99.90
13982;DHT22;7065;50.880;5.502;2024-03-22T09:13:52;12.50;99.90
13982;DHT22;7065;50.880;5.502;2024-03-22T09:16:18;12.60;99.90
13982;DHT22;7065;50.880;5.502;2024-03-22T09:18:43;12.70;99.90
13982;DHT22;7065;50.880;5.502;2024-03-22T09:21:09;12.80;99.90
13982;DHT22;7065;50.880;5.502;2024-03-22T09:23:36;12.80;99.90
13982;DHT22;7065;50.880;5.502;2024-03-22T09:26:02;12.90;99.90
13982;DHT22;7065;50.880;5.502;2024-03-22T09:28:27;13.00;99.90
13982;DHT22;7065;50.880;5.502;2024-03-22T09:30:53;12.90;99.90
13982;DHT22;7065;50.880;5.502;2024-03-22T09:33:18;12.90;99.90
13982;DHT22;7065;50.880;5.502;2024-03-22T09:35:44;12.90;99.90
13982;DHT22;7065;50.880;5.502;2024-03-22T09:38:10;12.90;99.90
13982;DHT22;7065;50.880;5.502;2024-03-22T09:40:39;13.00;99.90
13982;DHT22;7065;50.880;5.502;2024-03-22T09:43:07;13.00;99.90
13982;DHT22;7065;50.880;5.502;2024-03-22T09:45:33;13.00;99.90
13982;DHT22;7065;50.880;5.502;2024-03-22T09:47:59;13.00;99.90
13982;DHT22;7065;50.880;5.502;2024-03-22T09:50:26;12.90;99.90
13982;DHT22;7065;50.880;5.502;2024-03-22T09:52:52;12.80;99.90
13982;DHT22;7065;50.880;5.502;2024-03-22T09:55:22;12.70;99.90
13982;DHT22;7065;50.880;5.502;2024-03-22T09:57:49;12.60;99.90
13982;DHT22;7065;50.880;5.502;2024-03-22T10:00:19;12.70;99.90
13982;DHT22;7065;50.880;5.502;2024-03-22T10:02:50;12.70;99.90
13982;DHT22;7065;50.880;5.502;2024-03-22T10:05:16;12.70;99.90
13982;DHT22;7065;50.880;5.502;2024-03-22T10:07:45;12.70;99.90
13982;DHT22;7065;50.880;5.502;2024-03-22T10:10:11;12.70;99.90
13982;DHT22;7065;50.880;5.502;2024-03-22T10:12:39;12.70;99.90
13982;DHT22;7065;50.880;5.502;2024-03-22T10:15:05;12.80;99.90
13982;DHT22;7065;50.880;5.502;2024-03-22T10:17:34;12.80;99.90
13982;DHT22;7065;50.880;5.502;2024-03-22T10:19:59;13.00;99.90
13982;DHT22;7065;50.880;5.502;2024-03-22T10:22:25;13.00;99.90
13982;DHT22;7065;50.880;5.502;2024-03-22T10:24:51;13.10;99.90
13982;DHT22;7065;50.880;5.502;2024-03-22T10:27:17;13.10;99.90
13982;DHT22;7065;50.880;5.502;2024-03-22T10:29:44;13.10;99.90
13982;DHT22;7065;50.880;5.502;2024-03-22T10:32:10;13.10;99.90
13982;DHT22;7065;50.880;5.502;2024-03-22T10:34:35;13.00;99.90
13982;DHT22;7065;50.880;5.502;2024-03-22T10:37:02;13.00;99.90
13982;DHT22;7065;50.880;5.502;2024-03-22T10:39:30;13.00;99.90
13982;DHT22;7065;50.880;5.502;2024-03-22T10:41:56;13.00;99.90
13982;DHT22;7065;50.880;5.502;2024-03-22T10:44:22;13.00;99.90
13982;DHT22;7065;50.880;5.502;2024-03-22T10:46:48;13.00;99.90
13982;DHT22;7065;50.880;5.502;2024-03-22T10:49:20;13.00;99.90
13982;DHT22;7065;50.880;5.502;2024-03-22T10:51:57;13.10;99.90
13982;DHT22;7065;50.880;5.502;2024-03-22T10:54:28;13.10;99.90
13982;DHT22;7065;50.880;5.502;2024-03-22T10:56:56;13.10;99.90
13982;DHT22;7065;50.880;5.502;2024-03-22T10:59:23;13.20;99.90
13982;DHT22;7065;50.880;5.502;2024-03-22T11:01:49;13.20;99.90
13982;DHT22;7065;50.880;5.502;2024-03-22T11:04:21;13.30;99.90
13982;DHT22;7065;50.880;5.502;2024-03-22T11:06:50;13.30;99.90
13982;DHT22;7065;50.880;5.502;2024-03-22T11:09:23;13.30;99.90
13982;DHT22;7065;50.880;5.502;2024-03-22T11:11:51;13.40;99.90
13982;DHT22;7065;50.880;5.502;2024-03-22T11:14:17;13.40;99.90
13982;DHT22;7065;50.880;5.502;2024-03-22T11:16:48;13.40;99.90
13982;DHT22;7065;50.880;5.502;2024-03-22T11:19:14;13.30;99.90
13982;DHT22;7065;50.880;5.502;2024-03-22T11:21:40;13.20;99.90
13982;DHT22;7065;50.880;5.502;2024-03-22T11:24:05;13.20;99.90
13982;DHT22;7065;50.880;5.502;2024-03-22T11:26:34;13.20;99.90
13982;DHT22;7065;50.880;5.502;2024-03-22T11:29:00;13.30;99.90
13982;DHT22;7065;50.880;5.502;2024-03-22T11:31:26;13.30;99.90
13982;DHT22;7065;50.880;5.502;2024-03-22T11:33:56;13.40;99.90
13982;DHT22;7065;50.880;5.502;2024-03-22T11:36:22;13.40;99.90
13982;DHT22;7065;50.880;5.502;2024-03-22T11:38:48;13.60;99.90
13982;DHT22;7065;50.880;5.502;2024-03-22T11:41:27;13.70;99.90
13982;DHT22;7065;50.880;5.502;2024-03-22T11:43:54;13.80;99.90
13982;DHT22;7065;50.880;5.502;2024-03-22T11:46:20;13.80;99.90
13982;DHT22;7065;50.880;5.502;2024-03-22T11:48:53;13.70;99.90
13982;DHT22;7065;50.880;5.502;2024-03-22T11:51:20;13.60;99.90
13982;DHT22;7065;50.880;5.502;2024-03-22T11:53:52;13.70;99.90
13982;DHT22;7065;50.880;5.502;2024-03-22T11:56:20;13.80;99.90
13982;DHT22;7065;50.880;5.502;2024-03-22T11:58:47;13.80;99.90
13982;DHT22;7065;50.880;5.502;2024-03-22T12:01:15;13.90;99.90
13982;DHT22;7065;50.880;5.502;2024-03-22T12:03:43;13.80;99.90
13982;DHT22;7065;50.880;5.502;2024-03-22T12:06:10;13.80;99.90
13982;DHT22;7065;50.880;5.502;2024-03-22T12:08:37;13.70;99.90
13982;DHT22;7065;50.880;5.502;2024-03-22T12:11:04;13.70;99.90
13982;DHT22;7065;50.880;5.502;2024-03-22T12:13:29;13.70;99.90
13982;DHT22;7065;50.880;5.502;2024-03-22T12:15:55;13.70;99.90
13982;DHT22;7065;50.880;5.502;2024-03-22T12:18:21;13.80;99.90
13982;DHT22;7065;50.880;5.502;2024-03-22T12:20:46;13.70;99.90
13982;DHT22;7065;50.880;5.502;2024-03-22T12:23:12;13.60;99.90
13982;DHT22;7065;50.880;5.502;2024-03-22T12:25:38;13.50;99.90
13982;DHT22;7065;50.880;5.502;2024-03-22T12:28:03;13.50;99.90
13982;DHT22;7065;50.880;5.502;2024-03-22T12:30:30;13.50;99.90
13982;DHT22;7065;50.880;5.502;2024-03-22T12:32:56;13.50;99.90
13982;DHT22;7065;50.880;5.502;2024-03-22T12:35:21;13.60;99.90
13982;DHT22;7065;50.880;5.502;2024-03-22T12:37:47;13.60;99.90
13982;DHT22;7065;50.880;5.502;2024-03-22T12:40:13;13.50;99.90
13982;DHT22;7065;50.880;5.502;2024-03-22T12:42:40;13.50;99.90
13982;DHT22;7065;50.880;5.502;2024-03-22T12:45:06;13.60;99.90
13982;DHT22;7065;50.880;5.502;2024-03-22T12:47:33;13.80;99.90
13982;DHT22;7065;50.880;5.502;2024-03-22T12:49:58;13.90;99.90
13982;DHT22;7065;50.880;5.502;2024-03-22T12:52:24;13.90;99.90
13982;DHT22;7065;50.880;5.502;2024-03-22T12:54:49;13.90;99.90
13982;DHT22;7065;50.880;5.502;2024-03-22T12:57:15;13.90;99.90
13982;DHT22;7065;50.880;5.502;2024-03-22T12:59:41;13.80;99.90
13982;DHT22;7065;50.880;5.502;2024-03-22T13:02:07;13.90;99.90
13982;DHT22;7065;50.880;5.502;2024-03-22T13:04:33;13.90;99.90
13982;DHT22;7065;50.880;5.502;2024-03-22T13:06:59;13.70;99.90
13982;DHT22;7065;50.880;5.502;2024-03-22T13:09:24;13.60;99.90
13982;DHT22;7065;50.880;5.502;2024-03-22T13:11:50;13.50;99.90
13982;DHT22;7065;50.880;5.502;2024-03-22T13:14:16;13.40;99.90
13982;DHT22;7065;50.880;5.502;2024-03-22T13:16:41;13.50;99.90
13982;DHT22;7065;50.880;5.502;2024-03-22T13:19:07;13.50;99.90
13982;DHT22;7065;50.880;5.502;2024-03-22T13:21:38;13.50;99.90
13982;DHT22;7065;50.880;5.502;2024-03-22T13:24:04;13.60;99.90
13982;DHT22;7065;50.880;5.502;2024-03-22T13:26:31;13.70;99.90
13982;DHT22;7065;50.880;5.502;2024-03-22T13:28:56;13.70;99.90
13982;DHT22;7065;50.880;5.502;2024-03-22T13:31:22;13.70;99.90
13982;DHT22;7065;50.880;5.502;2024-03-22T13:33:48;13.80;99.90
13982;DHT22;7065;50.880;5.502;2024-03-22T13:36:13;13.60;99.90
13982;DHT22;7065;50.880;5.502;2024-03-22T13:38:39;13.50;99.90
13982;DHT22;7065;50.880;5.502;2024-03-22T13:41:05;13.50;99.90
13982;DHT22;7065;50.880;5.502;2024-03-22T13:43:31;13.40;99.90
13982;DHT22;7065;50.880;5.502;2024-03-22T13:45:57;13.30;99.90
13982;DHT22;7065;50.880;5.502;2024-03-22T13:48:24;13.30;99.90
13982;DHT22;7065;50.880;5.502;2024-03-22T13:50:54;13.30;99.90
13982;DHT22;7065;50.880;5.502;2024-03-22T13:53:21;13.20;99.90
13982;DHT22;7065;50.880;5.502;2024-03-22T13:55:50;13.20;99.90
13982;DHT22;7065;50.880;5.502;2024-03-22T13:58:16;13.20;99.90
13982;DHT22;7065;50.880;5.502;2024-03-22T14:00:42;13.20;99.90
13982;DHT22;7065;50.880;5.502;2024-03-22T14:03:08;13.20;99.90
13982;DHT22;7065;50.880;5.502;2024-03-22T14:05:34;13.20;99.90
13982;DHT22;7065;50.880;5.502;2024-03-22T14:08:00;13.10;99.90
13982;DHT22;7065;50.880;5.502;2024-03-22T14:10:25;13.10;99.90
13982;DHT22;7065;50.880;5.502;2024-03-22T14:12:53;13.10;99.90
13982;DHT22;7065;50.880;5.502;2024-03-22T14:15:19;13.10;99.90
13982;DHT22;7065;50.880;5.502;2024-03-22T14:17:45;13.00;99.90
13982;DHT22;7065;50.880;5.502;2024-03-22T14:20:11;13.00;99.90
13982;DHT22;7065;50.880;5.502;2024-03-22T14:22:40;13.00;99.90
13982;DHT22;7065;50.880;5.502;2024-03-22T14:25:07;13.00;99.90
13982;DHT22;7065;50.880;5.502;2024-03-22T14:27:34;13.00;99.90
13982;DHT22;7065;50.880;5.502;2024-03-22T14:30:00;13.00;99.90
13982;DHT22;7065;50.880;5.502;2024-03-22T14:32:26;13.00;99.90
13982;DHT22;7065;50.880;5.502;2024-03-22T14:34:52;12.90;99.90
13982;DHT22;7065;50.880;5.502;2024-03-22T14:37:18;12.90;99.90
13982;DHT22;7065;50.880;5.502;2024-03-22T14:39:43;12.90;99.90
13982;DHT22;7065;50.880;5.502;2024-03-22T14:42:09;12.90;99.90
13982;DHT22;7065;50.880;5.502;2024-03-22T14:44:35;12.80;99.90
13982;DHT22;7065;50.880;5.502;2024-03-22T14:47:00;12.90;99.90
13982;DHT22;7065;50.880;5.502;2024-03-22T14:49:26;12.90;99.90
13982;DHT22;7065;50.880;5.502;2024-03-22T14:51:52;12.80;99.90
13982;DHT22;7065;50.880;5.502;2024-03-22T14:54:17;12.80;99.90
13982;DHT22;7065;50.880;5.502;2024-03-22T14:56:43;12.80;99.90
13982;DHT22;7065;50.880;5.502;2024-03-22T14:59:08;12.80;99.90
13982;DHT22;7065;50.880;5.502;2024-03-22T15:01:34;12.80;99.90
13982;DHT22;7065;50.880;5.502;2024-03-22T15:04:01;12.80;99.90
13982;DHT22;7065;50.880;5.502;2024-03-22T15:06:26;12.70;99.90
13982;DHT22;7065;50.880;5.502;2024-03-22T15:08:55;12.70;99.90
13982;DHT22;7065;50.880;5.502;2024-03-22T15:11:20;12.60;99.90
13982;DHT22;7065;50.880;5.502;2024-03-22T15:13:46;12.40;99.90
13982;DHT22;7065;50.880;5.502;2024-03-22T15:16:12;12.30;99.90
13982;DHT22;7065;50.880;5.502;2024-03-22T15:18:39;12.20;99.90
13982;DHT22;7065;50.880;5.502;2024-03-22T15:21:07;12.00;99.90
13982;DHT22;7065;50.880;5.502;2024-03-22T15:23:33;11.80;99.90
13982;DHT22;7065;50.880;5.502;2024-03-22T15:25:59;11.70;99.90
13982;DHT22;7065;50.880;5.502;2024-03-22T15:28:25;11.60;99.90
13982;DHT22;7065;50.880;5.502;2024-03-22T15:30:50;11.50;99.90
13982;DHT22;7065;50.880;5.502;2024-03-22T15:33:16;11.40;99.90
13982;DHT22;7065;50.880;5.502;2024-03-22T15:35:42;11.40;99.90
13982;DHT22;7065;50.880;5.502;2024-03-22T15:38:13;11.40;99.90